createdAt,value
2022-11-17T00:00:44.352Z,34.80
2022-11-17T00:03:16.024Z,35.57
2022-11-17T00:05:44.398Z,31.47
2022-11-17T00:08:12.732Z,32.40
2022-11-17T00:10:40.941Z,30.27
2022-11-17T00:13:28.567Z,34.03
2022-11-17T00:15:58.100Z,32.63
2022-11-17T00:18:43.704Z,30.87
2022-11-17T00:21:21.250Z,29.30
2022-11-17T00:23:50.357Z,35.33
2022-11-17T00:26:20.522Z,31.67
2022-11-17T00:28:48.977Z,32.93
2022-11-17T00:31:35.853Z,31.87
2022-11-17T00:34:06.752Z,31.37
2022-11-17T00:36:38.023Z,32.87
2022-11-17T00:39:07.121Z,31.40
2022-11-17T00:41:35.333Z,33.13
2022-11-17T00:44:03.713Z,33.27
2022-11-17T00:46:33.586Z,36.23
2022-11-17T00:49:01.865Z,33.43
2022-11-17T00:51:30.298Z,33.83
2022-11-17T00:53:58.476Z,32.83
2022-11-17T00:56:27.467Z,30.73
2022-11-17T00:58:55.707Z,34.77
2022-11-17T01:01:24.817Z,32.80
2022-11-17T01:04:02.982Z,30.93
2022-11-17T01:06:33.227Z,32.37
2022-11-17T01:09:01.714Z,33.70
2022-11-17T01:11:30.295Z,30.20
2022-11-17T01:14:00.524Z,30.50
2022-11-17T01:16:30.090Z,31.33
2022-11-17T01:19:01.183Z,34.00
2022-11-17T01:21:30.981Z,32.03
2022-11-17T01:24:01.104Z,31.07
2022-11-17T01:26:31.418Z,34.13
2022-11-17T01:29:00.386Z,34.03
2022-11-17T01:31:30.565Z,32.00
2022-11-17T01:34:00.320Z,34.47
2022-11-17T01:36:30.920Z,32.83
2022-11-17T01:38:59.126Z,33.40
2022-11-17T01:41:29.370Z,36.30
2022-11-17T01:43:58.639Z,33.77
2022-11-17T01:46:31.814Z,35.67
2022-11-17T01:49:08.331Z,36.40
2022-11-17T01:51:39.405Z,37.70
2022-11-17T01:54:09.232Z,35.73
2022-11-17T01:56:43.482Z,36.33
2022-11-17T01:59:18.345Z,36.47
2022-11-17T02:01:56.705Z,35.57
2022-11-17T02:04:29.254Z,36.63
2022-11-17T02:07:02.550Z,34.80
2022-11-17T02:09:30.950Z,38.60
2022-11-17T02:12:00.159Z,37.07
2022-11-17T02:14:29.326Z,35.37
2022-11-17T02:17:01.357Z,39.03
2022-11-17T02:19:38.718Z,38.63
2022-11-17T02:22:34.747Z,40.53
2022-11-17T02:25:44.349Z,40.77
2022-11-17T02:28:19.208Z,39.43
2022-11-17T02:31:00.585Z,36.73
2022-11-17T02:33:38.196Z,41.00
2022-11-17T02:36:11.063Z,35.90
2022-11-17T02:38:45.089Z,40.30
2022-11-17T02:41:23.036Z,39.83
2022-11-17T02:44:06.781Z,39.20
2022-11-17T02:46:45.829Z,39.53
2022-11-17T02:49:20.895Z,40.63
2022-11-17T02:51:52.845Z,41.87
2022-11-17T02:54:22.826Z,42.97
2022-11-17T02:56:51.008Z,44.23
2022-11-17T02:59:23.984Z,40.20
2022-11-17T03:02:16.301Z,44.00
2022-11-17T03:04:55.888Z,44.73
2022-11-17T03:07:41.711Z,41.63
2022-11-17T03:10:15.679Z,44.97
2022-11-17T03:12:49.171Z,44.33
2022-11-17T03:15:26.088Z,44.73
2022-11-17T03:18:04.350Z,41.53
2022-11-17T03:20:40.671Z,48.13
2022-11-17T03:23:13.414Z,40.40
2022-11-17T03:25:46.807Z,43.73
2022-11-17T03:28:18.738Z,45.30
2022-11-17T03:30:50.333Z,45.00
2022-11-17T03:33:22.810Z,41.83
2022-11-17T03:35:56.193Z,43.17
2022-11-17T03:38:27.828Z,42.30
2022-11-17T03:40:59.473Z,42.47
2022-11-17T03:43:29.569Z,41.63
2022-11-17T03:46:04.501Z,43.90
2022-11-17T03:48:38.006Z,40.37
2022-11-17T03:51:10.300Z,41.80
2022-11-17T03:53:38.993Z,39.53
2022-11-17T03:56:16.278Z,38.87
2022-11-17T03:58:51.539Z,37.17
2022-11-17T04:01:22.211Z,38.37
2022-11-17T04:03:50.547Z,41.07
2022-11-17T04:06:18.768Z,37.87
2022-11-17T04:08:47.134Z,41.57
2022-11-17T04:11:32.757Z,41.77
2022-11-17T04:14:19.106Z,42.03
2022-11-17T04:16:48.644Z,43.00
2022-11-17T04:19:16.835Z,45.97
2022-11-17T04:21:45.036Z,45.73
2022-11-17T04:24:13.198Z,45.30
2022-11-17T04:26:58.669Z,39.47
2022-11-17T04:29:26.799Z,47.90
2022-11-17T04:31:56.366Z,43.97
2022-11-17T04:34:24.613Z,43.00
2022-11-17T04:36:52.823Z,42.53
2022-11-17T04:39:20.998Z,42.67
2022-11-17T04:41:54.113Z,43.77
2022-11-17T04:44:24.124Z,42.90
2022-11-17T04:46:52.917Z,44.70
2022-11-17T04:49:23.902Z,44.57
2022-11-17T04:51:52.690Z,41.10
2022-11-17T04:54:23.087Z,46.23
2022-11-17T04:56:51.977Z,49.63
2022-11-17T04:59:20.281Z,47.37
2022-11-17T05:01:48.982Z,48.00
2022-11-17T05:04:39.396Z,44.33
2022-11-17T05:07:10.351Z,47.40
2022-11-17T05:09:38.566Z,48.03
2022-11-17T05:12:24.535Z,47.83
2022-11-17T05:14:52.727Z,46.87
2022-11-17T05:17:19.904Z,44.40
2022-11-17T05:19:49.657Z,48.23
2022-11-17T05:22:39.771Z,44.10
2022-11-17T05:25:09.005Z,44.30
2022-11-17T05:27:37.457Z,47.67
2022-11-17T05:30:07.743Z,44.83
2022-11-17T05:32:36.162Z,43.27
2022-11-17T05:35:04.437Z,42.33
2022-11-17T05:37:34.014Z,44.03
2022-11-17T05:40:02.205Z,42.70
2022-11-17T05:42:30.368Z,39.73
2022-11-17T05:44:58.553Z,42.07
2022-11-17T05:47:26.723Z,43.43
2022-11-17T05:49:54.886Z,45.53
2022-11-17T05:52:22.995Z,46.73
2022-11-17T05:54:52.600Z,43.20
2022-11-17T05:57:29.219Z,45.60
2022-11-17T06:00:01.813Z,45.77
2022-11-17T06:02:34.584Z,47.53
2022-11-17T06:05:03.599Z,47.03
2022-11-17T06:07:31.864Z,47.37
2022-11-17T06:10:01.608Z,45.37
2022-11-17T06:12:29.910Z,43.97
2022-11-17T06:14:58.066Z,46.33
2022-11-17T06:17:29.530Z,47.60
2022-11-17T06:20:01.667Z,48.27
2022-11-17T06:22:31.306Z,44.87
2022-11-17T06:25:03.067Z,45.30
2022-11-17T06:27:33.136Z,46.53
2022-11-17T06:30:03.411Z,42.30
2022-11-17T06:32:32.715Z,34.77
2022-11-17T06:35:02.584Z,29.07
2022-11-17T06:37:30.785Z,27.63
2022-11-17T06:39:58.926Z,26.67
2022-11-17T06:42:42.296Z,26.60
2022-11-17T06:45:11.567Z,24.67
2022-11-17T06:47:39.884Z,23.87
2022-11-17T06:50:09.470Z,24.43
2022-11-17T06:52:38.230Z,22.87
2022-11-17T06:55:07.305Z,22.77
2022-11-17T06:57:36.884Z,23.23
2022-11-17T07:00:07.250Z,21.77
2022-11-17T07:02:36.762Z,25.60
2022-11-17T07:05:05.706Z,23.27
2022-11-17T07:07:34.051Z,23.57
2022-11-17T07:10:02.360Z,22.03
2022-11-17T07:12:30.633Z,25.70
2022-11-17T07:15:00.272Z,23.00
2022-11-17T07:17:29.624Z,22.37
2022-11-17T07:19:57.948Z,22.97
2022-11-17T07:22:26.130Z,24.00
2022-11-17T07:24:54.328Z,23.43
2022-11-17T07:27:22.678Z,24.03
2022-11-17T07:29:50.915Z,33.00
2022-11-17T07:32:20.488Z,26.77
2022-11-17T07:34:48.874Z,28.80
2022-11-17T07:37:17.139Z,34.13
2022-11-17T07:39:45.527Z,29.20
2022-11-17T07:42:13.763Z,28.93
2022-11-17T07:44:42.007Z,37.77
2022-11-17T07:47:10.182Z,44.33
2022-11-17T07:49:39.797Z,46.83
2022-11-17T07:52:08.024Z,49.20
2022-11-17T07:54:36.267Z,48.30
2022-11-17T07:57:05.064Z,50.03
2022-11-17T07:59:33.524Z,47.43
2022-11-17T08:02:01.708Z,39.77
2022-11-17T08:04:29.936Z,50.10
2022-11-17T08:06:59.572Z,51.40
2022-11-17T08:09:27.831Z,49.80
2022-11-17T08:11:57.628Z,50.10
2022-11-17T08:14:25.844Z,49.57
2022-11-17T08:16:54.056Z,39.67
2022-11-17T08:19:22.368Z,47.63
2022-11-17T08:21:51.090Z,47.07
2022-11-17T08:24:21.031Z,42.97
2022-11-17T08:26:49.262Z,38.50
2022-11-17T08:29:18.937Z,34.70
2022-11-17T08:31:47.877Z,39.67
2022-11-17T08:34:16.115Z,40.00
2022-11-17T08:36:44.367Z,41.67
2022-11-17T08:39:12.660Z,42.00
2022-11-17T08:41:42.261Z,35.50
2022-11-17T08:44:10.456Z,31.53
2022-11-17T08:46:38.659Z,33.50
2022-11-17T08:49:06.902Z,36.83
2022-11-17T08:51:35.261Z,32.47
2022-11-17T08:54:03.447Z,35.70
2022-11-17T08:56:31.723Z,30.97
2022-11-17T08:59:03.608Z,34.87
2022-11-17T09:01:32.002Z,34.57
2022-11-17T09:04:00.254Z,29.23
2022-11-17T09:06:28.456Z,32.40
2022-11-17T09:08:56.808Z,33.23
2022-11-17T09:11:25.332Z,33.63
2022-11-17T09:13:53.664Z,28.73
2022-11-17T09:16:24.079Z,33.20
2022-11-17T09:18:57.017Z,33.63
2022-11-17T09:21:27.211Z,32.67
2022-11-17T09:23:55.544Z,27.00
2022-11-17T09:26:23.920Z,31.80
2022-11-17T09:28:52.140Z,28.50
2022-11-17T09:31:23.540Z,29.57
2022-11-17T09:33:51.972Z,27.07
2022-11-17T09:36:20.298Z,27.30
2022-11-17T09:38:48.843Z,27.70
2022-11-17T09:41:26.751Z,23.87
2022-11-17T09:44:16.461Z,23.20
2022-11-17T09:47:02.794Z,26.17
2022-11-17T09:49:58.998Z,23.70
2022-11-17T09:52:32.089Z,24.90
2022-11-17T09:55:02.650Z,25.90
2022-11-17T09:57:38.860Z,22.73
2022-11-17T10:00:14.820Z,22.57
2022-11-17T10:02:44.773Z,24.50
2022-11-17T10:05:17.350Z,24.37
2022-11-17T10:07:50.287Z,23.50
2022-11-17T10:10:22.984Z,25.37
2022-11-17T10:12:54.382Z,26.30
2022-11-17T10:15:28.590Z,24.67
2022-11-17T10:17:58.478Z,23.37
2022-11-17T10:20:26.703Z,24.83
2022-11-17T10:22:55.699Z,22.20
2022-11-17T10:25:37.285Z,24.80
2022-11-17T10:28:07.789Z,24.63
2022-11-17T10:30:36.603Z,23.30
2022-11-17T10:33:06.339Z,21.97
2022-11-17T10:35:35.938Z,22.70
2022-11-17T10:38:06.920Z,24.27
2022-11-17T10:40:48.460Z,26.57
2022-11-17T10:43:25.289Z,20.63
2022-11-17T10:45:55.707Z,28.03
2022-11-17T10:48:29.225Z,31.37
2022-11-17T10:50:59.160Z,28.23
2022-11-17T10:53:45.145Z,30.47
2022-11-17T10:56:17.828Z,31.90
2022-11-17T10:59:12.695Z,28.47
2022-11-17T11:01:42.546Z,28.67
2022-11-17T11:04:34.695Z,28.67
2022-11-17T11:07:12.470Z,24.97
2022-11-17T11:09:46.495Z,26.67
2022-11-17T11:12:18.632Z,27.53
2022-11-17T11:14:51.850Z,26.03
2022-11-17T11:17:20.352Z,27.70
2022-11-17T11:19:54.164Z,30.43
2022-11-17T11:22:32.925Z,33.10
2022-11-17T11:25:17.600Z,25.33
2022-11-17T11:27:57.410Z,33.90
2022-11-17T11:30:25.849Z,34.67
2022-11-17T11:33:07.366Z,28.73
2022-11-17T11:35:51.174Z,31.63
2022-11-17T11:38:39.501Z,32.73
2022-11-17T11:41:28.505Z,29.70
2022-11-17T11:44:10.252Z,32.27
2022-11-17T11:46:48.033Z,33.33
2022-11-17T11:49:26.442Z,26.43
2022-11-17T11:51:56.121Z,28.47
2022-11-17T11:54:33.186Z,30.17
2022-11-17T11:57:02.677Z,24.60
2022-11-17T11:59:39.907Z,26.07
2022-11-17T12:02:25.840Z,28.37
2022-11-17T12:05:05.166Z,24.67
2022-11-17T12:07:44.012Z,22.83
2022-11-17T12:10:17.904Z,29.03
2022-11-17T12:12:47.576Z,27.90
2022-11-17T12:15:37.861Z,25.90
2022-11-17T12:18:12.504Z,20.53
2022-11-17T12:20:58.936Z,26.97
2022-11-17T12:24:10.181Z,30.00
2022-11-17T12:26:38.988Z,36.50
2022-11-17T12:29:47.138Z,30.23
2022-11-17T12:32:52.766Z,32.77
2022-11-17T12:35:25.859Z,44.87
2022-11-17T12:38:27.085Z,36.67
2022-11-17T12:40:56.789Z,37.73
2022-11-17T12:43:26.432Z,33.43
2022-11-17T12:46:14.353Z,36.00
2022-11-17T12:48:50.926Z,30.50
2022-11-17T12:51:28.162Z,35.27
2022-11-17T12:54:05.844Z,26.60
2022-11-17T12:56:42.874Z,36.27
2022-11-17T12:59:35.410Z,30.33
2022-11-17T13:02:18.405Z,25.23
2022-11-17T13:04:50.380Z,33.20
2022-11-17T13:07:21.642Z,28.93
2022-11-17T13:09:52.965Z,26.97
2022-11-17T13:12:25.593Z,36.40
2022-11-17T13:14:56.045Z,26.47
2022-11-17T13:17:29.595Z,24.03
2022-11-17T13:20:02.687Z,33.67
2022-11-17T13:22:31.006Z,23.53
2022-11-17T13:24:59.857Z,23.17
2022-11-17T13:27:31.755Z,34.97
2022-11-17T13:30:22.804Z,26.50
2022-11-17T13:32:51.693Z,27.13
2022-11-17T13:35:27.384Z,30.17
2022-11-17T13:38:08.369Z,39.10
2022-11-17T13:40:41.527Z,28.37
2022-11-17T13:43:21.740Z,28.37
2022-11-17T13:45:51.119Z,22.43
2022-11-17T13:48:33.334Z,22.13
2022-11-17T13:51:24.804Z,26.17
2022-11-17T13:53:56.828Z,28.30
2022-11-17T13:56:32.897Z,22.37
2022-11-17T13:59:06.306Z,21.33
2022-11-17T14:01:34.789Z,32.70
2022-11-17T14:04:20.443Z,29.63
2022-11-17T14:06:57.518Z,21.80
2022-11-17T14:09:27.002Z,20.70
2022-11-17T14:11:55.697Z,17.37
2022-11-17T14:14:33.483Z,22.77
2022-11-17T14:17:13.194Z,30.90
2022-11-17T14:19:41.436Z,26.20
2022-11-17T14:22:31.014Z,24.57
2022-11-17T14:25:00.455Z,22.37
2022-11-17T14:27:51.946Z,21.30
2022-11-17T14:30:24.135Z,18.50
2022-11-17T14:32:53.137Z,28.23
2022-11-17T14:35:21.394Z,25.73
2022-11-17T14:37:49.655Z,18.77
2022-11-17T14:40:18.961Z,23.00
2022-11-17T14:42:47.170Z,28.80
2022-11-17T14:45:16.715Z,26.67
2022-11-17T14:47:46.462Z,20.73
2022-11-17T14:50:16.982Z,28.87
2022-11-17T14:52:46.900Z,30.50
2022-11-17T14:55:15.491Z,22.70
2022-11-17T14:57:43.884Z,28.93
2022-11-17T15:00:17.373Z,27.73
2022-11-17T15:02:51.171Z,23.87
2022-11-17T15:05:19.420Z,29.70
2022-11-17T15:07:47.619Z,30.00
2022-11-17T15:10:15.812Z,22.03
2022-11-17T15:12:44.079Z,31.10
2022-11-17T15:15:12.489Z,29.40
2022-11-17T15:17:40.741Z,25.50
2022-11-17T15:20:11.539Z,32.97
2022-11-17T15:22:39.742Z,28.43
2022-11-17T15:25:09.404Z,22.80
2022-11-17T15:27:37.636Z,32.90
2022-11-17T15:30:06.803Z,29.23
2022-11-17T15:32:34.981Z,26.13
2022-11-17T15:35:03.144Z,35.03
2022-11-17T15:37:32.764Z,30.43
2022-11-17T15:40:00.990Z,34.83
2022-11-17T15:42:29.210Z,36.83
2022-11-17T15:44:57.398Z,26.43
2022-11-17T15:47:25.627Z,32.90
2022-11-17T15:49:58.674Z,38.60
2022-11-17T15:52:48.523Z,25.57
2022-11-17T15:55:17.027Z,35.77
2022-11-17T15:57:45.181Z,30.43
2022-11-17T16:00:14.601Z,23.53
2022-11-17T16:02:43.110Z,33.97
2022-11-17T16:05:11.345Z,32.00
2022-11-17T16:07:39.898Z,31.60
2022-11-17T16:10:08.601Z,35.90
2022-11-17T16:12:38.226Z,23.60
2022-11-17T16:15:09.482Z,34.07
2022-11-17T16:17:37.636Z,31.43
2022-11-17T16:20:06.782Z,24.83
2022-11-17T16:22:35.057Z,33.13
2022-11-17T16:25:04.341Z,28.40
2022-11-17T16:27:33.003Z,30.27
2022-11-17T16:30:02.581Z,36.67
2022-11-17T16:32:32.739Z,31.83
2022-11-17T16:35:00.901Z,42.47
2022-11-17T16:37:29.148Z,39.80
2022-11-17T16:39:57.311Z,37.23
2022-11-17T16:42:25.508Z,42.63
2022-11-17T16:44:53.872Z,37.90
2022-11-17T16:47:23.523Z,40.73
2022-11-17T16:49:51.984Z,36.20
2022-11-17T16:52:20.272Z,33.90
2022-11-17T16:54:48.443Z,43.20
2022-11-17T16:57:16.689Z,29.70
2022-11-17T16:59:44.920Z,42.00
2022-11-17T17:02:13.882Z,34.43
2022-11-17T17:04:43.420Z,33.03
2022-11-17T17:07:11.697Z,39.37
2022-11-17T17:09:39.957Z,36.07
2022-11-17T17:12:08.228Z,38.77
2022-11-17T17:14:36.501Z,37.57
2022-11-17T17:17:04.770Z,36.27
2022-11-17T17:19:33.103Z,38.77
2022-11-17T17:22:03.175Z,32.70
2022-11-17T17:24:31.399Z,39.50
2022-11-17T17:26:59.570Z,30.63
2022-11-17T17:29:27.772Z,37.47
2022-11-17T17:31:56.218Z,40.23
2022-11-17T17:34:24.420Z,31.53
2022-11-17T17:36:52.598Z,27.30
2022-11-17T17:39:22.147Z,23.17
2022-11-17T17:41:50.322Z,25.90
2022-11-17T17:44:20.393Z,26.83
2022-11-17T17:46:49.338Z,26.20
2022-11-17T17:49:19.010Z,25.47
2022-11-17T17:51:47.760Z,23.60
2022-11-17T17:54:17.995Z,23.90
2022-11-17T17:56:48.536Z,25.03
2022-11-17T17:59:17.434Z,26.00
2022-11-17T18:01:47.822Z,24.43
2022-11-17T18:04:17.347Z,22.57
2022-11-17T18:06:48.092Z,39.57
2022-11-17T18:09:19.390Z,41.13
2022-11-17T18:11:51.204Z,37.23
2022-11-17T18:14:22.503Z,41.53
2022-11-17T18:16:51.448Z,43.50
2022-11-17T18:19:20.066Z,39.17
2022-11-17T18:21:48.290Z,38.13
2022-11-17T18:24:16.529Z,38.57
2022-11-17T18:26:44.743Z,36.57
2022-11-17T18:29:18.480Z,37.53
2022-11-17T18:31:47.888Z,35.67
2022-11-17T18:34:18.853Z,38.93
2022-11-17T18:36:47.257Z,39.03
2022-11-17T18:39:16.281Z,36.63
2022-11-17T18:41:44.837Z,38.30
2022-11-17T18:44:15.226Z,36.37
2022-11-17T18:46:43.625Z,37.37
2022-11-17T18:49:12.023Z,40.53
2022-11-17T18:51:40.306Z,37.97
2022-11-17T18:54:08.977Z,35.27
2022-11-17T18:56:38.437Z,37.87
2022-11-17T18:59:11.546Z,39.93
2022-11-17T19:01:43.016Z,37.97
2022-11-17T19:04:13.311Z,37.90
2022-11-17T19:06:41.710Z,39.10
2022-11-17T19:09:10.857Z,42.20
2022-11-17T19:11:39.088Z,39.90
2022-11-17T19:14:07.513Z,37.73
2022-11-17T19:16:44.626Z,41.33
2022-11-17T19:19:15.529Z,41.30
2022-11-17T19:21:44.297Z,38.27
2022-11-17T19:24:12.679Z,43.73
2022-11-17T19:26:41.119Z,44.30
2022-11-17T19:29:16.851Z,43.90
2022-11-17T19:31:46.552Z,39.23
2022-11-17T19:34:16.508Z,43.17
2022-11-17T19:36:45.516Z,45.80
2022-11-17T19:39:14.879Z,45.10
2022-11-17T19:41:43.784Z,47.07
2022-11-17T19:44:12.480Z,43.93
2022-11-17T19:46:40.788Z,46.10
2022-11-17T19:49:09.097Z,47.47
2022-11-17T19:51:38.703Z,50.83
2022-11-17T19:54:08.991Z,50.57
2022-11-17T19:56:38.493Z,50.90
2022-11-17T19:59:10.940Z,53.40
2022-11-17T20:01:40.823Z,54.40
2022-11-17T20:04:09.011Z,54.77
2022-11-17T20:06:39.895Z,55.20
2022-11-17T20:09:09.393Z,55.23
2022-11-17T20:11:37.963Z,55.23
2022-11-17T20:14:06.310Z,52.57
2022-11-17T20:16:34.719Z,55.60
2022-11-17T20:19:03.519Z,58.63
2022-11-17T20:21:32.536Z,55.87
2022-11-17T20:24:02.782Z,60.03
2022-11-17T20:26:32.871Z,58.27
2022-11-17T20:29:01.719Z,55.67
2022-11-17T20:31:31.916Z,57.00
2022-11-17T20:34:01.675Z,60.23
2022-11-17T20:36:32.607Z,58.53
2022-11-17T20:39:04.188Z,61.00
2022-11-17T20:41:32.506Z,55.73
2022-11-17T20:44:02.454Z,58.73
2022-11-17T20:46:31.028Z,54.50
2022-11-17T20:48:59.234Z,58.27
2022-11-17T20:51:27.746Z,61.87
2022-11-17T20:53:55.962Z,59.17
2022-11-17T20:56:25.520Z,57.80
2022-11-17T20:58:53.715Z,58.23
2022-11-17T21:01:24.090Z,58.20
2022-11-17T21:03:52.753Z,57.80
2022-11-17T21:06:23.109Z,57.57
2022-11-17T21:08:51.972Z,57.87
2022-11-17T21:11:39.309Z,58.77
2022-11-17T21:14:10.553Z,57.03
2022-11-17T21:16:40.312Z,53.83
2022-11-17T21:19:09.161Z,59.33
2022-11-17T21:21:37.538Z,53.23
2022-11-17T21:24:06.572Z,49.10
2022-11-17T21:26:35.004Z,48.30
2022-11-17T21:29:06.725Z,47.97
2022-11-17T21:31:36.721Z,46.37
2022-11-17T21:34:07.162Z,48.77
2022-11-17T21:36:36.634Z,46.63
2022-11-17T21:39:05.754Z,47.47
2022-11-17T21:41:36.234Z,50.30
2022-11-17T21:44:04.736Z,46.53
2022-11-17T21:46:35.314Z,44.90
2022-11-17T21:49:05.080Z,45.50
2022-11-17T21:51:37.862Z,43.23
2022-11-17T21:54:07.969Z,44.03
2022-11-17T21:56:36.544Z,43.77
2022-11-17T21:59:06.621Z,45.57
2022-11-17T22:01:35.924Z,42.20
2022-11-17T22:04:05.912Z,42.10
2022-11-17T22:06:34.252Z,40.37
2022-11-17T22:09:02.458Z,42.10
2022-11-17T22:11:38.466Z,39.47
2022-11-17T22:14:09.246Z,41.60
2022-11-17T22:16:39.187Z,41.60
2022-11-17T22:19:09.655Z,43.63
2022-11-17T22:21:38.858Z,43.30
2022-11-17T22:24:09.461Z,41.60
2022-11-17T22:26:38.551Z,43.50
2022-11-17T22:29:08.294Z,47.17
2022-11-17T22:31:36.529Z,44.80
2022-11-17T22:34:05.073Z,44.43
2022-11-17T22:36:34.696Z,42.73
2022-11-17T22:39:03.107Z,42.07
2022-11-17T22:41:31.339Z,40.57
2022-11-17T22:43:59.545Z,43.93
2022-11-17T22:46:29.106Z,39.80
2022-11-17T22:48:57.590Z,40.67
2022-11-17T22:51:58.408Z,40.93
2022-11-17T22:54:28.038Z,42.53
2022-11-17T22:56:56.263Z,46.07
2022-11-17T22:59:24.871Z,40.93
2022-11-17T23:01:53.111Z,43.73
2022-11-17T23:04:23.008Z,43.13
2022-11-17T23:06:51.440Z,40.67
2022-11-17T23:09:19.874Z,43.83
2022-11-17T23:11:49.572Z,40.00
2022-11-17T23:14:17.793Z,40.73
2022-11-17T23:16:45.983Z,43.10
2022-11-17T23:19:15.216Z,44.83
2022-11-17T23:21:43.747Z,42.73
2022-11-17T23:24:13.037Z,43.67
2022-11-17T23:26:41.678Z,43.37
2022-11-17T23:29:11.834Z,41.57
2022-11-17T23:31:40.148Z,44.03
2022-11-17T23:34:11.274Z,44.57
2022-11-17T23:36:39.630Z,45.40
2022-11-17T23:39:07.817Z,47.30
2022-11-17T23:41:35.997Z,42.80
2022-11-17T23:44:04.215Z,46.10
2022-11-17T23:46:33.779Z,43.43
2022-11-17T23:49:02.077Z,43.80
2022-11-17T23:51:30.316Z,45.83
2022-11-17T23:54:00.513Z,46.13
2022-11-17T23:56:28.830Z,43.17
2022-11-17T23:58:57.062Z,44.47
